Gary, IN (46403)

3:38 AM CDT on September 02, 2015 (GMT -0500)
Lake Dombey | | Change Station
CLOSE
Current Station
Personal Weather Station
Location: Portage, IN
Elevation: 640 ft
Nearby Weather Stations
Active Advisory: Air Quality Alert

Elev 640 ft 41.58 °N, 87.21 °W | Updated 32 seconds ago

Clear
Clear
73.1 °F
Feels Like 72 °F
N
0.0
Wind Variable Wind from North
Gusts 0.0 mph

Today
High -- | Low -- °F
--% Chance of Precip.
Yesterday
High -- | Low -- °F
Precip. -- in
6:15 AM 7:20 PM
Waning Gibbous, 82% visible
Pressure 30.04 in
Visibility 7.0 miles
Clouds Clear
Heat Index 72 °F
Dew Point 68 °F
Humidity 85%
Rainfall 0.00 in
Snow Depth Not available.
UV 0 out of 12
Pollen 11.00 out of 12
Air Quality Not available.
Flu Activity Not available.
METAR KGYY 020815Z AUTO 00000KT 7SM CLR 23/20 A3004 RMK AO2 T02320195
Pressure 30.04 in
Visibility 7.0 miles
Clouds Clear
Heat Index 72 °F
Dew Point 68 °F
Humidity 85%
Rainfall 0.00 in
Snow Depth Not available.
UV 0 out of 12
Pollen 11.00 out of 12
Air Quality Not available.
Flu Activity Not available.
METAR KGYY 020815Z AUTO 00000KT 7SM CLR 23/20 A3004 RMK AO2 T02320195

10-Day Weather Forecast

×

Almanac

Astronomy

Sep. 02, 2015 Rise Set
Actual Time
Civil Twilight
Nautical Twilight
Astronomical Twilight
Moon
Length of Visible Light
Length of Day
Tomorrow will be .
, % of the Moon is Illuminated

Today's Extremes

State Highs State Lows

Community

WunderPhotos

Upload Photos

1,851,728 photos uploaded!

WunderBlogs® & News

Nearby

Air Quality

  Air Quality AQ Index Pollutant
Not available.

Snow Depth

Station Depth Elevation

Earthquake Activity

City Distance Mag. Time & Date
Minimum magnitude displayed is 2.5.

Coastal Water Temperatures

Place Temperature

Stations

Nearby Weather Stations

Station Location Temp. Windchill Dew Point Humidity Wind Precip. Elev Updated Type
                   
Air Quality Alert
Statement as of 1:50 PM CDT on September 01, 2015

... Air quality alert in effect from 1 am Wednesday to 1 am CDT
Thursday...

An air quality action day has been forecast for lake and Porter
counties in Northwest Indiana and is in effect from 1 am
Wednesday to 1 am CDT Thursday.

Ozone levels are expected to be in the Orange or unhealthy for
sensitive groups range. For additional information... please visit
the idem smog watch web site at www.In.Gov/Apps/idem/smog/ or the
EPA airnow web site at www.Airnow.Gov and click on Indiana.


150 PM CDT Tue Sep 1 2015

... Air quality alert in effect from 1 am Wednesday to 1 am CDT
Thursday...

An air quality action day has been forecast for lake and Porter
counties in Northwest Indiana and is in effect from 1 am
Wednesday to 1 am CDT Thursday.

Ozone levels are expected to be in the Orange or unhealthy for
sensitive groups range. For additional information... please visit
the idem smog watch web site at www.In.Gov/Apps/idem/smog/ or the
EPA airnow web site at www.Airnow.Gov and click on Indiana.